Cestohowa, Texas
Current Conditions -  °F | °C
As of 11:15 AM on Thursday 18 Dec 2014 (Local Time) from KPEZ Reporting Station
Overcast Overcast  
Wind Chill: 60°   Ceiling: 700
Heat Index: 60°   Visibility: 7mi
Dew Point: 56°   Wind: 7mph
Humidity: 89%   Direction: 30°NNE
Pressure: 30.12"   Gusts: NA
Location:  28.933°N, 98.0642°W
Report Text: KPEZ 181715Z AUTO 03006KT 7SM OVC007 15/14 A3012 RMK AO2 T01530135
Loading
Personal Weather Stations






























Interactive Weather Map New forecast layout! Learn more

10-Day Weather Forecast

Advertisements
Track Severe Weather on mobile